Terminal Aerodrome Forecast
Issued by NWS Wakefield, VA

Home | Current Version | Previous Version | Text Only | Print | Product List | Glossary On
Versions: 1 2 3 4 5 6 7 8 9 10 11 12 13
789
FTUS41 KAKQ 151128
TAFECG
TAF
KECG 151128Z 1512/1612 36006KT P6SM BKN100
     FM151600 12006KT P6SM BKN080
     FM151900 18006KT P6SM BKN100
     FM152000 25007KT P6SM BKN200
     FM152300 29009KT P6SM BKN200=

USA.gov is the U.S. government's official web portal to all federal, state and local government web resources and services.